Terminal Aerodrome Forecast
Issued by NWS

Home | Current Version | Previous Version | Text Only | Print | Product List | Glossary On
Versions: 1 2 3 4 5 6 7 8 9 10 11 12 13 14 15 16 17 18
000
FTUS44 KSJT 190300 AAA
TAFJCT
TAF AMD
KJCT 190358Z 1904/1924 VRB04KT P6SM OVC040
     FM190500 03003KT 5SM BR VCSH OVC015
     FM190700 02003KT 2SM -RA BR OVC007
     FM192100 02005KT 5SM BR BKN015 OVC040=

USA.gov is the U.S. government's official web portal to all federal, state and local government web resources and services.